Time;durP1;ratioP1;P1;durP2;ratioP2;P2;SDS_P1;SDS_P2;PMS_P1;PMS_P2;Temp;Humidity;BMP_temperature;BMP_pressure;BME280_temperature;BME280_humidity;BME280_pressure;Samples;Min_cycle;Max_cycle;Signal;HPM_P1;HPM_P2
2024/01/31 00:02:19;;;;;;;165.15;34.78;;;;;;;;;;6143788;23;20025;-60
2024/01/31 00:04:46;;;;;;;623.10;54.25;;;;;;;;;;6145237;23;20026;-59
2024/01/31 00:07:20;;;;;;;364.27;43.72;;;;;;;;;;6145029;23;20486;-63
2024/01/31 00:09:47;;;;;;;215.13;34.05;;;;;;;;;;6145471;23;20021;-64
2024/01/31 00:12:41;;;;;;;203.98;35.10;;;;;;;;;;6145187;23;20467;-63
2024/01/31 00:15:28;;;;;;;325.00;40.88;;;;;;;;;;6145803;23;20396;-64
2024/01/31 00:18:09;;;;;;;208.13;36.92;;;;;;;;;;6145149;23;20080;-62
2024/01/31 00:20:49;;;;;;;223.85;35.00;;;;;;;;;;6113452;23;20052;-62
2024/01/31 00:23:23;;;;;;;400.02;43.97;;;;;;;;;;6114263;23;20026;-62
2024/01/31 00:25:58;;;;;;;454.13;46.03;;;;;;;;;;6115611;23;20022;-62
2024/01/31 00:28:25;;;;;;;;;;;;;;;;;;6114295;23;20018;-62
2024/01/31 00:30:59;;;;;;;615.80;51.20;;;;;;;;;;6115785;23;19963;-62
2024/01/31 00:33:26;;;;;;;626.08;53.42;;;;;;;;;;6116010;23;20041;-62
2024/01/31 00:35:55;;;;;;;390.85;44.40;;;;;;;;;;6114826;23;20026;-65
2024/01/31 00:38:29;;;;;;;914.13;65.15;;;;;;;;;;6116574;23;20034;-65
2024/01/31 00:40:56;;;;;;;;;;;;;;;;;;6117728;23;20089;-66
2024/01/31 00:43:23;;;;;;;517.95;46.90;;;;;;;;;;6117219;23;19924;-65
2024/01/31 00:45:57;;;;;;;597.08;51.08;;;;;;;;;;6116766;23;20128;-63
2024/01/31 00:48:24;;;;;;;951.90;65.82;;;;;;;;;;6116344;23;20030;-62
2024/01/31 00:50:58;;;;;;;800.92;60.03;;;;;;;;;;6116546;23;20093;-62
2024/01/31 00:53:25;;;;;;;;;;;;;;;;;;6115507;23;20026;-62
2024/01/31 00:55:52;;;;;;;735.58;52.45;;;;;;;;;;6115664;23;19921;-62
2024/01/31 00:58:27;;;;;;;577.15;48.53;;;;;;;;;;6114893;23;20030;-62
2024/01/31 01:00:54;;;;;;;702.92;56.92;;;;;;;;;;6110727;23;20057;-63
2024/01/31 01:03:28;;;;;;;1004.75;71.43;;;;;;;;;;6103190;23;20025;-64
2024/01/31 01:05:55;;;;;;;918.70;67.35;;;;;;;;;;6115460;23;20022;-64
2024/01/31 01:08:22;;;;;;;706.97;52.97;;;;;;;;;;6115658;23;20030;-64
2024/01/31 01:10:57;;;;;;;589.03;48.00;;;;;;;;;;6116192;23;20747;-64
2024/01/31 01:13:24;;;;;;;241.52;29.63;;;;;;;;;;6115846;23;20472;-66
2024/01/31 01:15:58;;;;;;;403.38;39.47;;;;;;;;;;6117096;23;20468;-55
2024/01/31 01:18:25;;;;;;;605.97;47.65;;;;;;;;;;6115157;23;20372;-64
2024/01/31 01:20:52;;;;;;;509.10;45.50;;;;;;;;;;6133011;23;20025;-64
2024/01/31 01:23:33;;;;;;;406.17;39.55;;;;;;;;;;6144836;23;20029;-64
2024/01/31 01:26:00;;;;;;;375.92;43.45;;;;;;;;;;6119363;23;20095;-64
2024/01/31 01:28:34;;;;;;;161.30;31.75;;;;;;;;;;6145778;23;20017;-65
2024/01/31 01:31:01;;;;;;;;;;;;;;;;;;6148462;23;20032;-64
2024/01/31 01:33:29;;;;;;;77.15;21.48;;;;;;;;;;6139778;23;20520;-56
2024/01/31 01:36:03;;;;;;;45.10;16.65;;;;;;;;;;6140547;23;20552;-60
2024/01/31 01:38:31;;;;;;;42.92;14.88;;;;;;;;;;6145364;23;20554;-60
2024/01/31 01:40:58;;;;;;;38.67;13.95;;;;;;;;;;6144141;23;20474;-60
2024/01/31 01:43:32;;;;;;;31.10;12.35;;;;;;;;;;6145228;23;20022;-66
2024/01/31 01:45:59;;;;;;;;;;;;;;;;;;6146768;23;20029;-52
2024/01/31 01:48:33;;;;;;;28.88;12.55;;;;;;;;;;6144206;23;20259;-54
2024/01/31 01:51:00;;;;;;;;;;;;;;;;;;6145180;23;20025;-50
2024/01/31 01:53:27;;;;;;;59.25;15.13;;;;;;;;;;6145384;23;19928;-51
2024/01/31 01:56:04;;;;;;;155.13;21.90;;;;;;;;;;6144145;23;20084;-52
2024/01/31 01:58:32;;;;;;;462.38;35.53;;;;;;;;;;6144740;23;20096;-57
2024/01/31 02:01:00;;;;;;;184.55;20.55;;;;;;;;;;6146839;23;20025;-61
2024/01/31 02:03:35;;;;;;;678.03;42.67;;;;;;;;;;6144548;23;20064;-65
2024/01/31 02:06:03;;;;;;;424.85;30.55;;;;;;;;;;6144410;23;20026;-64
2024/01/31 02:08:31;;;;;;;424.55;29.38;;;;;;;;;;6144137;23;20088;-65
2024/01/31 02:11:05;;;;;;;488.92;30.50;;;;;;;;;;6145467;23;20030;-65
2024/01/31 02:13:32;;;;;;;;;;;;;;;;;;6145907;23;20068;-66
2024/01/31 02:16:06;;;;;;;386.52;25.05;;;;;;;;;;6146023;23;20331;-64
2024/01/31 02:18:33;;;;;;;518.53;35.08;;;;;;;;;;6145518;23;20021;-65
2024/01/31 02:21:01;;;;;;;823.03;45.13;;;;;;;;;;6145336;23;20025;-66
2024/01/31 02:23:41;;;;;;;315.45;25.58;;;;;;;;;;6143635;23;20021;-66
2024/01/31 02:26:09;;;;;;;613.75;40.58;;;;;;;;;;6144937;23;20560;-65
2024/01/31 02:28:43;;;;;;;133.18;19.08;;;;;;;;;;6144194;23;20068;-54
2024/01/31 02:31:10;;;;;;;360.00;28.88;;;;;;;;;;6146349;23;20105;-51
2024/01/31 02:33:37;;;;;;;310.13;26.50;;;;;;;;;;6144236;23;20021;-62
2024/01/31 02:36:11;;;;;;;114.25;18.77;;;;;;;;;;6118741;23;20616;-62
2024/01/31 02:38:38;;;;;;;107.30;19.50;;;;;;;;;;6144533;23;20025;-62
2024/01/31 02:41:05;;;;;;;84.78;16.05;;;;;;;;;;6144965;23;20408;-62
2024/01/31 02:43:39;;;;;;;57.83;14.65;;;;;;;;;;6144574;23;20033;-62
2024/01/31 02:46:06;;;;;;;109.38;19.20;;;;;;;;;;6145626;23;20061;-62
2024/01/31 02:48:40;;;;;;;42.60;13.18;;;;;;;;;;6145196;23;20021;-52
2024/01/31 02:51:07;;;;;;;;;;;;;;;;;;6144038;23;20029;-52
2024/01/31 02:53:34;;;;;;;67.13;14.65;;;;;;;;;;6144621;23;19920;-52
2024/01/31 02:56:09;;;;;;;45.28;12.45;;;;;;;;;;6144932;23;20105;-53
2024/01/31 02:58:36;;;;;;;32.50;11.48;;;;;;;;;;6145302;23;20025;-51
2024/01/31 03:01:07;;;;;;;36.88;12.02;;;;;;;;;;6144765;23;20355;-50
2024/01/31 03:03:41;;;;;;;58.17;14.98;;;;;;;;;;6145363;23;20036;-53
2024/01/31 03:06:08;;;;;;;34.88;12.35;;;;;;;;;;6145934;23;20387;-54
2024/01/31 03:08:42;;;;;;;47.78;13.85;;;;;;;;;;6144501;23;20033;-51
2024/01/31 03:11:09;;;;;;;34.90;14.23;;;;;;;;;;6146853;23;20025;-52
2024/01/31 03:13:36;;;;;;;43.25;15.15;;;;;;;;;;6146661;23;20028;-51
2024/01/31 03:16:10;;;;;;;58.50;16.58;;;;;;;;;;6145292;23;20511;-56
2024/01/31 03:18:37;;;;;;;43.17;14.85;;;;;;;;;;6144906;23;20033;-52
2024/01/31 03:21:04;;;;;;;46.65;15.32;;;;;;;;;;6144683;23;20025;-55
2024/01/31 03:23:38;;;;;;;24.63;11.88;;;;;;;;;;6143281;23;20029;-55
2024/01/31 03:26:05;;;;;;;33.22;10.27;;;;;;;;;;6144896;23;20028;-53
2024/01/31 03:28:40;;;;;;;22.30;8.70;;;;;;;;;;6146891;23;20033;-64
2024/01/31 03:31:07;;;;;;;16.48;8.45;;;;;;;;;;6147144;23;20104;-63
2024/01/31 03:33:34;;;;;;;18.23;9.48;;;;;;;;;;6143006;23;20025;-62
2024/01/31 03:36:11;;;;;;;16.15;8.95;;;;;;;;;;6143903;23;20352;-62
2024/01/31 03:38:39;;;;;;;13.30;8.32;;;;;;;;;;6143609;23;20080;-61
2024/01/31 03:41:13;;;;;;;10.48;6.50;;;;;;;;;;6145022;23;20021;-62
2024/01/31 03:43:43;;;;;;;11.55;6.40;;;;;;;;;;6144941;23;20534;-62
2024/01/31 03:46:11;;;;;;;12.02;5.28;;;;;;;;;;6145510;23;20414;-66
2024/01/31 03:48:45;;;;;;;11.75;5.53;;;;;;;;;;6143290;23;20084;-66
2024/01/31 03:51:22;;;;;;;12.77;6.72;;;;;;;;;;6144995;23;20113;-65
2024/01/31 03:53:56;;;;;;;12.35;7.05;;;;;;;;;;6142822;23;20479;-62
2024/01/31 03:56:23;;;;;;;11.30;6.47;;;;;;;;;;6143463;23;20449;-59
2024/01/31 03:58:56;;;;;;;11.90;6.53;;;;;;;;;;6143201;23;20508;-65
2024/01/31 04:01:31;;;;;;;11.13;6.90;;;;;;;;;;6144098;23;20029;-65
2024/01/31 04:03:58;;;;;;;9.75;4.80;;;;;;;;;;6143514;23;20137;-65
2024/01/31 04:06:26;;;;;;;12.70;4.57;;;;;;;;;;6144052;23;20022;-66
2024/01/31 04:09:00;;;;;;;8.80;4.28;;;;;;;;;;6144220;23;20113;-66
2024/01/31 04:11:34;;;;;;;11.57;4.93;;;;;;;;;;6144611;23;20032;-65
2024/01/31 04:14:08;;;;;;;11.73;5.18;;;;;;;;;;6147064;23;20101;-54
2024/01/31 04:16:35;;;;;;;10.82;5.28;;;;;;;;;;6148059;23;20329;-53
2024/01/31 04:19:02;;;;;;;16.75;5.70;;;;;;;;;;6145560;23;20025;-55
2024/01/31 04:21:43;;;;;;;12.82;5.10;;;;;;;;;;6146203;23;20025;-58
2024/01/31 04:24:11;;;;;;;9.48;3.53;;;;;;;;;;6145958;23;20029;-59
2024/01/31 04:26:45;;;;;;;9.02;3.60;;;;;;;;;;6145187;23;20568;-63
2024/01/31 04:29:12;;;;;;;12.02;4.00;;;;;;;;;;6147014;23;20072;-63
2024/01/31 04:31:51;;;;;;;13.02;4.03;;;;;;;;;;6148052;23;20024;-64
2024/01/31 04:34:20;;;;;;;11.95;4.00;;;;;;;;;;6144069;23;20029;-63
2024/01/31 04:36:54;;;;;;;13.00;3.92;;;;;;;;;;6146674;23;20021;-63
2024/01/31 04:39:21;;;;;;;16.50;3.72;;;;;;;;;;6146729;23;20092;-63
2024/01/31 04:41:48;;;;;;;11.27;2.97;;;;;;;;;;6146270;23;20510;-60
2024/01/31 04:44:22;;;;;;;10.48;3.33;;;;;;;;;;6145506;23;20471;-57
2024/01/31 04:46:49;;;;;;;12.70;3.60;;;;;;;;;;6147887;23;20022;-59
2024/01/31 04:49:23;;;;;;;13.65;3.13;;;;;;;;;;6145432;23;20029;-59
2024/01/31 04:51:50;;;;;;;;;;;;;;;;;;6146402;23;20459;-52
2024/01/31 04:54:18;;;;;;;9.38;3.17;;;;;;;;;;6119723;23;19920;-62
2024/01/31 04:56:52;;;;;;;13.35;3.20;;;;;;;;;;6143282;23;20076;-62
2024/01/31 04:59:19;;;;;;;10.40;3.30;;;;;;;;;;6144386;23;20039;-61
2024/01/31 05:01:54;;;;;;;12.45;3.25;;;;;;;;;;6145811;23;20021;-62
2024/01/31 05:04:21;;;;;;;11.90;2.70;;;;;;;;;;6143773;23;20029;-62
2024/01/31 05:06:49;;;;;;;13.38;3.42;;;;;;;;;;6145855;23;20025;-62
2024/01/31 05:09:23;;;;;;;16.35;3.53;;;;;;;;;;6146399;23;20022;-62
2024/01/31 05:11:50;;;;;;;16.02;3.17;;;;;;;;;;6146035;23;20072;-62
2024/01/31 05:14:24;;;;;;;13.20;3.30;;;;;;;;;;6146838;23;20133;-62
2024/01/31 05:16:51;;;;;;;12.18;3.10;;;;;;;;;;6148323;23;20021;-62
2024/01/31 05:19:18;;;;;;;;;;;;;;;;;;6146160;23;20425;-59
2024/01/31 05:22:02;;;;;;;10.50;2.70;;;;;;;;;;6143242;23;19916;-48
2024/01/31 05:24:30;;;;;;;11.38;2.58;;;;;;;;;;6142494;23;20065;-65
2024/01/31 05:27:05;;;;;;;14.60;2.63;;;;;;;;;;6144721;23;20029;-64
2024/01/31 05:29:32;;;;;;;11.00;2.83;;;;;;;;;;6144640;23;20408;-65
2024/01/31 05:31:59;;;;;;;15.70;2.78;;;;;;;;;;6145374;23;20017;-64
2024/01/31 05:34:33;;;;;;;9.32;2.45;;;;;;;;;;6145367;23;20416;-64
2024/01/31 05:37:20;;;;;;;6.57;2.17;;;;;;;;;;6143774;23;20032;-64
2024/01/31 05:40:16;;;;;;;14.88;2.75;;;;;;;;;;6142824;23;20060;-49
2024/01/31 05:43:01;;;;;;;18.80;2.80;;;;;;;;;;6143065;23;20026;-53
2024/01/31 05:45:56;;;;;;;25.05;4.30;;;;;;;;;;6139621;23;20024;-49
2024/01/31 05:48:42;;;;;;;11.70;3.42;;;;;;;;;;6139886;23;20025;-65
2024/01/31 05:51:42;;;;;;;16.08;4.05;;;;;;;;;;6141946;23;20408;-65
2024/01/31 05:54:38;;;;;;;22.15;3.03;;;;;;;;;;6144029;23;20075;-65
2024/01/31 05:57:32;;;;;;;15.75;2.97;;;;;;;;;;6143262;23;20100;-65
2024/01/31 06:00:20;;;;;;;16.73;2.97;;;;;;;;;;6143678;23;20080;-65
2024/01/31 06:03:15;;;;;;;9.98;2.72;;;;;;;;;;6141670;23;20032;-65
2024/01/31 06:06:08;;;;;;;13.48;2.67;;;;;;;;;;6142829;23;20029;-62
2024/01/31 06:09:05;;;;;;;12.13;2.83;;;;;;;;;;6144712;23;20025;-52
2024/01/31 06:11:49;;;;;;;16.58;2.45;;;;;;;;;;6146401;23;20029;-63
2024/01/31 06:14:43;;;;;;;12.32;2.53;;;;;;;;;;6145528;23;20021;-62
2024/01/31 06:17:38;;;;;;;16.98;2.83;;;;;;;;;;6145979;23;20345;-62
2024/01/31 06:20:24;;;;;;;15.63;2.85;;;;;;;;;;6145850;23;20371;-62
2024/01/31 06:23:18;;;;;;;7.63;2.85;;;;;;;;;;6147718;23;20797;-62
2024/01/31 06:26:05;;;;;;;11.15;2.40;;;;;;;;;;6147789;23;20037;-51
2024/01/31 06:28:59;;;;;;;15.48;2.92;;;;;;;;;;6147643;23;20022;-54
2024/01/31 06:31:47;;;;;;;16.77;2.53;;;;;;;;;;6146422;23;20025;-49
2024/01/31 06:34:40;;;;;;;14.00;3.50;;;;;;;;;;6146300;23;20053;-54
2024/01/31 06:37:28;;;;;;;10.25;2.75;;;;;;;;;;6146335;23;20341;-60
2024/01/31 06:40:22;;;;;;;12.10;2.60;;;;;;;;;;6144922;23;20056;-52
2024/01/31 06:43:09;;;;;;;9.02;2.65;;;;;;;;;;6146034;23;20025;-54
2024/01/31 06:46:03;;;;;;;19.35;3.13;;;;;;;;;;6145673;23;20026;-49
2024/01/31 06:48:50;;;;;;;22.70;3.30;;;;;;;;;;6145318;23;20101;-51
2024/01/31 06:51:44;;;;;;;17.50;2.97;;;;;;;;;;6146525;23;20357;-54
2024/01/31 06:54:37;;;;;;;22.48;3.67;;;;;;;;;;6145925;23;20036;-63
2024/01/31 06:57:33;;;;;;;15.70;2.75;;;;;;;;;;6146503;23;20097;-63
2024/01/31 07:00:19;;;;;;;14.15;2.45;;;;;;;;;;6144693;23;20733;-63
2024/01/31 07:03:13;;;;;;;19.88;3.53;;;;;;;;;;6145660;23;20028;-53
2024/01/31 07:06:00;;;;;;;21.00;3.78;;;;;;;;;;6146223;23;20029;-63
2024/01/31 07:08:54;;;;;;;23.52;3.40;;;;;;;;;;6144389;23;20459;-64
2024/01/31 07:11:41;;;;;;;32.25;3.05;;;;;;;;;;6147013;23;20096;-64
2024/01/31 07:14:35;;;;;;;31.00;3.55;;;;;;;;;;6144621;23;20088;-65
2024/01/31 07:17:23;;;;;;;26.83;4.63;;;;;;;;;;6146615;23;20032;-64
2024/01/31 07:20:29;;;;;;;36.78;5.10;;;;;;;;;;6146130;23;20464;-65
2024/01/31 07:23:23;;;;;;;18.45;3.40;;;;;;;;;;6147009;23;20120;-64
2024/01/31 07:26:23;;;;;;;24.42;3.70;;;;;;;;;;6147775;23;20022;-65
2024/01/31 07:29:14;;;;;;;25.23;3.55;;;;;;;;;;6147649;23;20025;-63
2024/01/31 07:32:07;;;;;;;24.38;3.35;;;;;;;;;;6146832;23;20025;-65
2024/01/31 07:34:54;;;;;;;32.35;3.92;;;;;;;;;;6146025;23;20399;-61
2024/01/31 07:37:48;;;;;;;28.83;4.03;;;;;;;;;;6145064;23;20408;-61
2024/01/31 07:40:35;;;;;;;25.17;3.97;;;;;;;;;;6145131;23;20092;-61
2024/01/31 07:43:29;;;;;;;25.35;4.35;;;;;;;;;;6145391;23;20026;-61
2024/01/31 07:46:16;;;;;;;20.58;3.50;;;;;;;;;;6144261;23;20562;-61
2024/01/31 07:49:11;;;;;;;31.15;4.20;;;;;;;;;;6144625;23;20072;-61
2024/01/31 07:51:57;;;;;;;29.17;4.00;;;;;;;;;;6145805;23;20474;-61
2024/01/31 07:54:52;;;;;;;26.13;3.67;;;;;;;;;;6144746;23;20076;-61
2024/01/31 07:57:39;;;;;;;35.50;3.50;;;;;;;;;;6144868;23;20032;-61
2024/01/31 08:00:33;;;;;;;39.08;4.45;;;;;;;;;;6143517;23;20071;-55
2024/01/31 08:03:20;;;;;;;20.13;3.08;;;;;;;;;;6145110;23;20084;-53
2024/01/31 08:06:14;;;;;;;17.00;3.70;;;;;;;;;;6143544;23;20068;-49
2024/01/31 08:09:01;;;;;;;27.17;3.40;;;;;;;;;;6142650;23;20022;-54
2024/01/31 08:11:55;;;;;;;38.17;3.40;;;;;;;;;;6145575;23;20025;-51
2024/01/31 08:14:42;;;;;;;28.27;3.38;;;;;;;;;;6146018;23;20040;-51
2024/01/31 08:17:36;;;;;;;21.95;3.33;;;;;;;;;;6146411;23;20025;-52
2024/01/31 08:20:30;;;;;;;26.88;3.22;;;;;;;;;;6146109;23;20471;-59
2024/01/31 08:23:30;;;;;;;29.00;3.10;;;;;;;;;;6147633;23;20040;-61
2024/01/31 08:26:18;;;;;;;37.83;4.10;;;;;;;;;;6146141;23;20100;-59
2024/01/31 08:29:12;;;;;;;16.73;2.90;;;;;;;;;;6146776;23;20245;-59
2024/01/31 08:31:59;;;;;;;21.48;2.50;;;;;;;;;;6144214;23;20021;-49
2024/01/31 08:34:53;;;;;;;25.55;3.20;;;;;;;;;;6144051;23;20096;-52
2024/01/31 08:37:40;;;;;;;27.70;3.15;;;;;;;;;;6144660;23;20017;-53
2024/01/31 08:40:34;;;;;;;15.02;2.38;;;;;;;;;;6145337;23;20029;-54
2024/01/31 08:43:21;;;;;;;17.42;2.35;;;;;;;;;;6144855;23;20100;-50
2024/01/31 08:46:15;;;;;;;15.45;2.38;;;;;;;;;;6144843;23;20021;-52
2024/01/31 08:49:24;;;;;;;23.52;2.95;;;;;;;;;;6144967;23;20032;-59
2024/01/31 08:52:18;;;;;;;24.38;3.50;;;;;;;;;;6144144;23;20056;-60
2024/01/31 08:55:08;;;;;;;21.63;2.58;;;;;;;;;;6145152;23;20021;-59
2024/01/31 08:58:02;;;;;;;18.80;2.33;;;;;;;;;;6146329;23;20391;-64
2024/01/31 09:00:49;;;;;;;20.63;2.95;;;;;;;;;;6145403;23;20017;-53
2024/01/31 09:03:43;;;;;;;18.35;3.00;;;;;;;;;;6147101;23;20022;-53
2024/01/31 09:06:30;;;;;;;11.10;2.42;;;;;;;;;;6146308;23;20030;-55
2024/01/31 09:09:24;;;;;;;21.55;3.10;;;;;;;;;;6147205;23;20023;-55
2024/01/31 09:12:19;;;;;;;20.02;2.97;;;;;;;;;;6146998;23;20475;-52
2024/01/31 09:15:09;;;;;;;21.25;2.38;;;;;;;;;;6145730;23;20021;-59
2024/01/31 09:18:03;;;;;;;17.98;2.78;;;;;;;;;;6145831;23;20025;-64
2024/01/31 09:20:55;;;;;;;21.17;2.92;;;;;;;;;;6145548;23;20496;-65
2024/01/31 09:23:56;;;;;;;23.40;3.50;;;;;;;;;;6146907;23;20076;-66
2024/01/31 09:26:50;;;;;;;20.95;2.90;;;;;;;;;;6147173;23;20025;-60
2024/01/31 09:29:37;;;;;;;21.45;2.47;;;;;;;;;;6148181;23;20060;-66
2024/01/31 09:32:31;;;;;;;20.75;2.88;;;;;;;;;;6148274;23;20021;-65
2024/01/31 09:35:18;;;;;;;28.33;3.88;;;;;;;;;;6147064;23;20056;-65
2024/01/31 09:38:12;;;;;;;33.75;3.58;;;;;;;;;;6145867;23;20029;-66
2024/01/31 09:41:06;;;;;;;23.88;3.70;;;;;;;;;;6146880;23;20025;-65
2024/01/31 09:43:55;;;;;;;25.60;3.38;;;;;;;;;;6145497;23;20116;-59
2024/01/31 09:46:50;;;;;;;24.67;3.50;;;;;;;;;;6146317;23;20084;-59
2024/01/31 09:49:37;;;;;;;23.65;3.08;;;;;;;;;;6145300;23;20083;-58
2024/01/31 09:52:31;;;;;;;21.15;2.90;;;;;;;;;;6146393;23;20033;-59
2024/01/31 09:55:20;;;;;;;19.02;2.80;;;;;;;;;;6146566;23;20022;-64
2024/01/31 09:58:14;;;;;;;26.38;3.90;;;;;;;;;;6146908;23;20044;-52
2024/01/31 10:01:02;;;;;;;20.35;2.63;;;;;;;;;;6146533;23;20025;-51
2024/01/31 10:03:59;;;;;;;22.13;2.97;;;;;;;;;;6144753;23;20028;-52
2024/01/31 10:06:47;;;;;;;14.30;2.45;;;;;;;;;;6145367;23;20026;-53
2024/01/31 10:09:41;;;;;;;24.92;2.92;;;;;;;;;;6144348;23;20025;-54
2024/01/31 10:12:28;;;;;;;22.63;2.78;;;;;;;;;;6145136;23;20376;-52
2024/01/31 10:15:22;;;;;;;27.63;3.30;;;;;;;;;;6144542;23;20033;-52
2024/01/31 10:18:09;;;;;;;24.17;2.72;;;;;;;;;;6147327;23;20757;-52
2024/01/31 10:21:03;;;;;;;28.80;3.42;;;;;;;;;;6143660;23;20092;-52
2024/01/31 10:24:02;;;;;;;20.10;2.72;;;;;;;;;;6146387;23;20337;-63
2024/01/31 10:26:48;;;;;;;24.02;3.10;;;;;;;;;;6146829;23;20101;-63
2024/01/31 10:29:42;;;;;;;23.98;3.00;;;;;;;;;;6146452;23;20029;-63
2024/01/31 10:32:30;;;;;;;23.27;3.20;;;;;;;;;;6146603;23;20072;-63
2024/01/31 10:35:24;;;;;;;29.17;3.25;;;;;;;;;;6144444;23;20032;-64
2024/01/31 10:38:39;;;;;;;21.55;3.33;;;;;;;;;;6146514;23;20057;-64
2024/01/31 10:41:27;;;;;;;25.20;3.58;;;;;;;;;;6147143;23;20025;-50
2024/01/31 10:44:21;;;;;;;31.65;3.67;;;;;;;;;;6145806;23;20297;-52
2024/01/31 10:47:15;;;;;;;24.80;3.72;;;;;;;;;;6145547;23;20448;-54
2024/01/31 10:50:02;;;;;;;22.55;3.25;;;;;;;;;;6143753;23;20100;-54
2024/01/31 10:52:57;;;;;;;29.67;3.30;;;;;;;;;;6146257;23;20021;-66
2024/01/31 10:55:44;;;;;;;42.37;4.37;;;;;;;;;;6145137;23;20028;-59
2024/01/31 10:58:38;;;;;;;31.17;3.80;;;;;;;;;;6144140;23;20245;-60
2024/01/31 11:01:30;;;;;;;19.90;4.03;;;;;;;;;;6145031;23;20026;-59
2024/01/31 11:04:24;;;;;;;22.52;4.00;;;;;;;;;;6144431;23;20147;-59
2024/01/31 11:07:29;;;;;;;39.00;5.03;;;;;;;;;;6144821;23;20025;-58
2024/01/31 11:10:25;;;;;;;24.52;3.78;;;;;;;;;;6144888;23;20080;-55
2024/01/31 11:13:10;;;;;;;31.77;4.72;;;;;;;;;;6144725;23;20084;-53
2024/01/31 11:16:05;;;;;;;25.30;4.97;;;;;;;;;;6144156;23;20050;-54
2024/01/31 11:18:52;;;;;;;30.27;4.07;;;;;;;;;;6145256;23;20968;-54
2024/01/31 11:21:52;;;;;;;28.23;4.30;;;;;;;;;;6143763;23;20021;-63
2024/01/31 11:24:43;;;;;;;26.20;4.93;;;;;;;;;;6144656;23;20028;-59
2024/01/31 11:27:37;;;;;;;23.50;3.30;;;;;;;;;;6145423;23;20025;-59
2024/01/31 11:30:34;;;;;;;23.73;3.88;;;;;;;;;;6145930;23;20021;-59
2024/01/31 11:33:28;;;;;;;22.88;2.75;;;;;;;;;;6146583;23;20025;-59
2024/01/31 11:36:22;;;;;;;26.73;3.60;;;;;;;;;;6144313;23;20025;-59
2024/01/31 11:39:16;;;;;;;32.03;4.43;;;;;;;;;;6145525;23;20018;-63
2024/01/31 11:42:18;;;;;;;24.73;3.58;;;;;;;;;;6144987;23;20383;-64
2024/01/31 11:45:18;;;;;;;19.83;3.00;;;;;;;;;;6145669;23;20021;-63
2024/01/31 11:48:06;;;;;;;20.23;3.30;;;;;;;;;;6146623;23;20028;-60
2024/01/31 11:51:00;;;;;;;16.08;2.83;;;;;;;;;;6145231;23;20021;-63
2024/01/31 11:53:47;;;;;;;25.42;4.43;;;;;;;;;;6145411;23;20029;-64
2024/01/31 11:56:41;;;;;;;32.45;3.55;;;;;;;;;;6146042;23;20025;-64
2024/01/31 11:59:29;;;;;;;26.97;3.50;;;;;;;;;;6144019;23;20022;-64
2024/01/31 12:02:23;;;;;;;37.95;4.32;;;;;;;;;;6143904;23;20055;-63
2024/01/31 12:05:11;;;;;;;26.48;3.38;;;;;;;;;;6143682;23;20022;-64
2024/01/31 12:08:04;;;;;;;21.38;3.42;;;;;;;;;;6146136;23;20250;-63
2024/01/31 12:10:51;;;;;;;30.05;4.05;;;;;;;;;;6144027;23;20026;-63
2024/01/31 12:13:45;;;;;;;18.73;3.78;;;;;;;;;;6143442;23;20475;-62
2024/01/31 12:16:39;;;;;;;20.98;3.30;;;;;;;;;;6144216;23;20032;-59
2024/01/31 12:19:33;;;;;;;30.98;4.30;;;;;;;;;;6143562;23;20548;-60
2024/01/31 12:22:27;;;;;;;22.45;3.35;;;;;;;;;;6143749;23;20033;-58
2024/01/31 12:25:21;;;;;;;20.88;4.25;;;;;;;;;;6144195;23;20080;-59
2024/01/31 12:28:09;;;;;;;24.63;3.85;;;;;;;;;;6144393;23;20080;-60
2024/01/31 12:31:03;;;;;;;30.52;4.60;;;;;;;;;;6144544;23;20018;-59
2024/01/31 12:33:50;;;;;;;25.20;3.53;;;;;;;;;;6146006;23;20029;-60
2024/01/31 12:36:44;;;;;;;19.83;3.15;;;;;;;;;;6146879;23;20104;-62
2024/01/31 12:39:38;;;;;;;22.00;4.10;;;;;;;;;;6146949;23;20329;-62
2024/01/31 12:42:26;;;;;;;26.75;3.35;;;;;;;;;;6147209;23;20026;-62
2024/01/31 12:45:20;;;;;;;28.55;3.90;;;;;;;;;;6147839;23;20017;-64
2024/01/31 12:48:08;;;;;;;28.95;3.75;;;;;;;;;;6147695;23;20025;-52
2024/01/31 12:51:01;;;;;;;20.85;3.78;;;;;;;;;;6146882;23;20387;-48
2024/01/31 12:53:48;;;;;;;19.63;2.90;;;;;;;;;;6148600;23;20021;-45
2024/01/31 12:56:42;;;;;;;17.13;3.70;;;;;;;;;;6146936;23;20040;-48
2024/01/31 12:59:30;;;;;;;26.92;3.60;;;;;;;;;;6144286;23;20100;-54
2024/01/31 13:02:24;;;;;;;29.17;3.92;;;;;;;;;;6145574;23;20025;-55
2024/01/31 13:05:12;;;;;;;27.52;4.15;;;;;;;;;;6146383;23;20025;-62
2024/01/31 13:08:06;;;;;;;25.92;3.28;;;;;;;;;;6146810;23;20029;-62
2024/01/31 13:10:53;;;;;;;21.15;3.58;;;;;;;;;;6144406;23;20025;-62
2024/01/31 13:13:49;;;;;;;22.95;3.38;;;;;;;;;;6145917;23;20071;-66
2024/01/31 13:16:35;;;;;;;25.13;3.40;;;;;;;;;;6144176;23;20483;-61
2024/01/31 13:19:29;;;;;;;29.60;3.90;;;;;;;;;;6146068;23;20021;-61
2024/01/31 13:22:23;;;;;;;20.70;3.35;;;;;;;;;;6144695;23;20769;-62
2024/01/31 13:25:17;;;;;;;20.42;3.25;;;;;;;;;;6144885;23;20328;-62
2024/01/31 13:28:04;;;;;;;27.83;4.88;;;;;;;;;;6146597;23;20024;-61
2024/01/31 13:30:58;;;;;;;21.60;2.75;;;;;;;;;;6144589;23;20367;-61
2024/01/31 13:33:52;;;;;;;22.33;3.83;;;;;;;;;;6145841;23;20030;-51
2024/01/31 13:36:46;;;;;;;21.80;3.17;;;;;;;;;;6145769;23;20025;-53
2024/01/31 13:39:40;;;;;;;23.60;3.60;;;;;;;;;;6147241;23;20084;-56
2024/01/31 13:42:27;;;;;;;25.27;3.67;;;;;;;;;;6145959;23;20103;-62
2024/01/31 13:45:21;;;;;;;22.67;3.13;;;;;;;;;;6146126;23;20076;-60
2024/01/31 13:48:08;;;;;;;30.73;3.53;;;;;;;;;;6145890;23;20080;-59
2024/01/31 13:51:02;;;;;;;19.20;3.38;;;;;;;;;;6146534;23;20026;-60
2024/01/31 13:53:56;;;;;;;23.83;3.47;;;;;;;;;;6146715;23;20076;-59
2024/01/31 13:56:43;;;;;;;32.53;4.43;;;;;;;;;;6145423;23;20100;-59
2024/01/31 13:59:37;;;;;;;22.17;3.50;;;;;;;;;;6146161;23;20111;-61
2024/01/31 14:02:25;;;;;;;19.75;3.75;;;;;;;;;;6145165;23;20458;-58
2024/01/31 14:05:19;;;;;;;28.23;3.50;;;;;;;;;;6145685;23;20096;-59
2024/01/31 14:08:16;;;;;;;27.60;4.22;;;;;;;;;;6145663;23;20343;-58
2024/01/31 14:11:03;;;;;;;29.95;3.85;;;;;;;;;;6144945;23;20084;-59
2024/01/31 14:13:57;;;;;;;16.60;3.22;;;;;;;;;;6144904;23;20029;-62
2024/01/31 14:16:44;;;;;;;27.70;3.40;;;;;;;;;;6146114;23;20029;-62
2024/01/31 14:19:38;;;;;;;19.98;3.28;;;;;;;;;;6145072;23;20557;-62
2024/01/31 14:22:36;;;;;;;25.15;3.95;;;;;;;;;;6145055;23;20029;-62
2024/01/31 14:25:46;;;;;;;29.25;4.07;;;;;;;;;;6144020;23;20028;-62
2024/01/31 14:28:40;;;;;;;31.95;5.90;;;;;;;;;;6145721;23;20029;-66
2024/01/31 14:31:27;;;;;;;18.20;3.75;;;;;;;;;;6144585;23;20816;-66
2024/01/31 14:34:21;;;;;;;14.60;2.80;;;;;;;;;;6145185;23;20018;-65
2024/01/31 14:37:15;;;;;;;30.65;4.00;;;;;;;;;;6145342;23;20033;-66
2024/01/31 14:40:09;;;;;;;17.08;2.70;;;;;;;;;;6144030;23;20037;-52
2024/01/31 14:42:56;;;;;;;26.73;3.17;;;;;;;;;;6145075;23;20088;-62
2024/01/31 14:45:50;;;;;;;24.77;4.13;;;;;;;;;;6146122;23;20021;-62
2024/01/31 14:48:37;;;;;;;25.80;3.90;;;;;;;;;;6146064;23;20029;-62
2024/01/31 14:51:31;;;;;;;19.25;3.03;;;;;;;;;;6146553;23;20033;-62
2024/01/31 14:54:18;;;;;;;20.17;3.60;;;;;;;;;;6146613;23;20025;-62
2024/01/31 14:57:12;;;;;;;22.23;3.85;;;;;;;;;;6147616;23;20467;-67
2024/01/31 15:00:01;;;;;;;27.17;3.55;;;;;;;;;;6145666;23;20471;-66
2024/01/31 15:02:54;;;;;;;26.83;3.60;;;;;;;;;;6142832;23;20133;-68
2024/01/31 15:05:41;;;;;;;36.83;4.55;;;;;;;;;;6143628;23;20040;-66
2024/01/31 15:08:36;;;;;;;19.45;3.53;;;;;;;;;;6144334;23;20024;-64
2024/01/31 15:11:23;;;;;;;21.60;3.45;;;;;;;;;;6142843;23;20475;-62
2024/01/31 15:14:17;;;;;;;25.92;3.75;;;;;;;;;;6145671;23;20064;-59
2024/01/31 15:17:04;;;;;;;26.23;3.00;;;;;;;;;;6143511;23;20029;-58
2024/01/31 15:19:58;;;;;;;25.40;4.05;;;;;;;;;;6144168;23;20021;-57
2024/01/31 15:22:51;;;;;;;18.25;2.38;;;;;;;;;;6143442;23;20029;-59
2024/01/31 15:25:45;;;;;;;;;;;;;;;;;;6145953;23;20037;-62
2024/01/31 15:28:33;;;;;;;25.13;3.72;;;;;;;;;;6145022;23;19917;-62
2024/01/31 15:31:27;;;;;;;31.67;4.25;;;;;;;;;;6144928;23;20076;-62
2024/01/31 15:34:21;;;;;;;28.15;4.78;;;;;;;;;;6143976;23;20025;-62
2024/01/31 15:37:09;;;;;;;29.85;4.57;;;;;;;;;;6145257;23;20021;-50
2024/01/31 15:40:04;;;;;;;30.42;4.30;;;;;;;;;;6145152;23;20371;-60
2024/01/31 15:42:49;;;;;;;25.55;4.10;;;;;;;;;;6145159;23;20021;-59
2024/01/31 15:45:45;;;;;;;25.10;4.43;;;;;;;;;;6143741;23;20079;-59
2024/01/31 15:48:32;;;;;;;32.60;5.05;;;;;;;;;;6146509;23;20088;-59
2024/01/31 15:51:26;;;;;;;27.10;4.35;;;;;;;;;;6145398;23;20076;-60
2024/01/31 15:54:15;;;;;;;24.17;3.45;;;;;;;;;;6144260;23;20083;-66
2024/01/31 15:57:07;;;;;;;21.10;3.95;;;;;;;;;;6144347;23;20447;-66
2024/01/31 15:59:54;;;;;;;19.58;3.08;;;;;;;;;;6143596;23;20036;-66
2024/01/31 16:02:48;;;;;;;22.42;3.63;;;;;;;;;;6144117;23;20386;-66
2024/01/31 16:05:36;;;;;;;25.23;3.67;;;;;;;;;;6143689;23;20120;-52
2024/01/31 16:08:29;;;;;;;31.98;3.83;;;;;;;;;;6144544;23;20025;-61